createdAt,value
2023-02-23T00:00:29.740Z,9.43
2023-02-23T00:03:01.405Z,9.97
2023-02-23T00:05:33.163Z,9.63
2023-02-23T00:08:02.657Z,10.20
2023-02-23T00:10:31.749Z,10.17
2023-02-23T00:13:01.112Z,9.97
2023-02-23T00:15:30.283Z,9.80
2023-02-23T00:17:59.673Z,9.90
2023-02-23T00:20:28.981Z,8.83
2023-02-23T00:22:59.353Z,9.40
2023-02-23T00:25:31.237Z,9.00
2023-02-23T00:27:59.842Z,8.83
2023-02-23T00:30:28.545Z,8.67
2023-02-23T00:33:02.201Z,9.13
2023-02-23T00:35:30.896Z,8.80
2023-02-23T00:38:01.097Z,9.17
2023-02-23T00:40:30.201Z,9.17
2023-02-23T00:42:58.727Z,9.00
2023-02-23T00:45:28.668Z,9.20
2023-02-23T00:47:57.269Z,9.17
2023-02-23T00:50:25.789Z,9.50
2023-02-23T00:52:54.397Z,8.70
2023-02-23T00:55:27.038Z,8.87
2023-02-23T00:57:55.916Z,9.27
2023-02-23T01:00:26.483Z,9.43
2023-02-23T01:02:56.499Z,9.20
2023-02-23T01:05:25.182Z,9.43
2023-02-23T01:07:58.096Z,8.73
2023-02-23T01:10:28.233Z,9.27
2023-02-23T01:12:56.876Z,8.87
2023-02-23T01:15:25.533Z,8.43
2023-02-23T01:17:54.375Z,8.70
2023-02-23T01:20:23.073Z,9.80
2023-02-23T01:22:52.838Z,10.37
2023-02-23T01:25:21.933Z,10.30
2023-02-23T01:27:52.050Z,10.77
2023-02-23T01:30:20.728Z,12.13
2023-02-23T01:32:51.049Z,12.27
2023-02-23T01:35:20.159Z,13.47
2023-02-23T01:37:51.344Z,12.27
2023-02-23T01:40:29.213Z,13.00
2023-02-23T01:43:03.143Z,14.57
2023-02-23T01:45:35.924Z,14.70
2023-02-23T01:48:08.265Z,11.90
2023-02-23T01:50:46.403Z,14.30
2023-02-23T01:53:15.577Z,12.30
2023-02-23T01:55:45.214Z,11.33
2023-02-23T01:58:20.010Z,10.77
2023-02-23T02:00:51.516Z,10.10
2023-02-23T02:03:28.016Z,9.90
2023-02-23T02:05:58.407Z,9.17
2023-02-23T02:08:28.670Z,9.00
2023-02-23T02:10:57.907Z,8.80
2023-02-23T02:13:31.548Z,9.33
2023-02-23T02:16:18.822Z,9.60
2023-02-23T02:19:18.826Z,8.93
2023-02-23T02:22:27.359Z,9.17
2023-02-23T02:25:31.738Z,13.13
2023-02-23T02:28:35.561Z,9.20
2023-02-23T02:31:46.826Z,9.83
2023-02-23T02:34:49.405Z,9.43
2023-02-23T02:37:33.342Z,9.00
2023-02-23T02:40:16.819Z,9.10
2023-02-23T02:42:56.481Z,9.40
2023-02-23T02:45:32.344Z,8.93
2023-02-23T02:48:07.778Z,9.20
2023-02-23T02:50:46.411Z,8.43
2023-02-23T02:53:21.946Z,8.43
2023-02-23T02:55:51.806Z,9.07
2023-02-23T02:58:21.056Z,10.23
2023-02-23T03:01:08.932Z,9.67
2023-02-23T03:04:12.529Z,9.97
2023-02-23T03:07:09.272Z,9.80
2023-02-23T03:10:05.966Z,9.20
2023-02-23T03:12:58.453Z,10.50
2023-02-23T03:15:56.698Z,11.33
2023-02-23T03:18:59.051Z,10.80
2023-02-23T03:21:50.865Z,10.70
2023-02-23T03:24:46.801Z,9.63
2023-02-23T03:27:41.547Z,9.57
2023-02-23T03:30:34.128Z,9.87
2023-02-23T03:33:28.190Z,9.37
2023-02-23T03:36:21.678Z,10.07
2023-02-23T03:39:12.672Z,11.33
2023-02-23T03:42:01.450Z,11.10
2023-02-23T03:44:52.052Z,10.40
2023-02-23T03:47:42.105Z,10.70
2023-02-23T03:50:34.129Z,10.60
2023-02-23T03:53:22.621Z,10.13
2023-02-23T03:56:13.721Z,10.57
2023-02-23T03:59:05.416Z,11.27
2023-02-23T04:01:53.751Z,10.20
2023-02-23T04:04:42.482Z,10.60
2023-02-23T04:07:30.233Z,11.23
2023-02-23T04:10:16.367Z,11.13
2023-02-23T04:13:08.960Z,11.00
2023-02-23T04:15:38.592Z,11.93
2023-02-23T04:18:13.315Z,10.43
2023-02-23T04:20:41.975Z,10.87
2023-02-23T04:23:10.769Z,11.37
2023-02-23T04:25:39.445Z,10.83
2023-02-23T04:28:11.447Z,10.23
2023-02-23T04:30:41.112Z,10.87
2023-02-23T04:33:11.643Z,11.83
2023-02-23T04:35:40.753Z,12.30
2023-02-23T04:38:09.765Z,11.67
2023-02-23T04:40:38.296Z,13.17
2023-02-23T04:43:06.831Z,12.20
2023-02-23T04:45:35.375Z,10.97
2023-02-23T04:48:04.246Z,10.63
2023-02-23T04:50:34.684Z,12.33
2023-02-23T04:53:03.449Z,11.33
2023-02-23T04:55:32.935Z,12.47
2023-02-23T04:58:03.278Z,12.77
2023-02-23T05:00:34.303Z,13.83
2023-02-23T05:03:03.127Z,13.17
2023-02-23T05:05:33.570Z,13.13
2023-02-23T05:08:02.451Z,13.20
2023-02-23T05:10:31.125Z,13.67
2023-02-23T05:13:01.304Z,12.80
2023-02-23T05:15:30.427Z,14.00
2023-02-23T05:18:04.728Z,14.50
2023-02-23T05:20:34.815Z,15.03
2023-02-23T05:23:03.528Z,13.70
2023-02-23T05:25:32.221Z,12.73
2023-02-23T05:28:01.314Z,12.77
2023-02-23T05:30:30.085Z,13.07
2023-02-23T05:32:58.976Z,12.70
2023-02-23T05:35:27.891Z,13.43
2023-02-23T05:37:58.188Z,12.80
2023-02-23T05:40:26.865Z,13.83
2023-02-23T05:43:00.520Z,11.83
2023-02-23T05:45:29.333Z,11.97
2023-02-23T05:47:59.397Z,12.57
2023-02-23T05:50:28.090Z,11.57
2023-02-23T05:52:58.215Z,12.43
2023-02-23T05:55:27.225Z,12.70
2023-02-23T05:57:56.137Z,13.00
2023-02-23T06:00:25.041Z,13.23
2023-02-23T06:02:54.166Z,13.37
2023-02-23T06:05:23.023Z,13.20
2023-02-23T06:07:51.749Z,13.80
2023-02-23T06:10:21.990Z,13.40
2023-02-23T06:12:50.579Z,12.87
2023-02-23T06:15:19.680Z,12.57
2023-02-23T06:17:51.706Z,13.37
2023-02-23T06:20:20.506Z,11.63
2023-02-23T06:22:49.252Z,13.23
2023-02-23T06:25:18.125Z,12.23
2023-02-23T06:27:52.009Z,13.33
2023-02-23T06:30:24.550Z,12.30
2023-02-23T06:32:53.369Z,13.47
2023-02-23T06:35:24.300Z,13.63
2023-02-23T06:37:53.013Z,12.57
2023-02-23T06:40:22.405Z,13.43
2023-02-23T06:42:53.052Z,13.77
2023-02-23T06:45:21.782Z,14.03
2023-02-23T06:48:10.682Z,13.50
2023-02-23T06:50:39.381Z,13.57
2023-02-23T06:53:08.577Z,13.53
2023-02-23T06:55:37.155Z,15.10
2023-02-23T06:58:08.395Z,13.90
2023-02-23T07:00:37.556Z,14.63
2023-02-23T07:03:07.024Z,14.03
2023-02-23T07:05:35.589Z,13.20
2023-02-23T07:08:04.545Z,13.47
2023-02-23T07:10:33.469Z,13.03
2023-02-23T07:13:02.318Z,13.53
2023-02-23T07:15:32.472Z,13.33
2023-02-23T07:18:01.117Z,13.73
2023-02-23T07:20:29.871Z,13.20
2023-02-23T07:22:58.981Z,13.43
2023-02-23T07:25:27.753Z,13.30
2023-02-23T07:27:56.372Z,13.30
2023-02-23T07:30:25.277Z,13.40
2023-02-23T07:32:55.969Z,12.60
2023-02-23T07:35:24.922Z,12.83
2023-02-23T07:37:54.653Z,12.47
2023-02-23T07:40:25.646Z,13.63
2023-02-23T07:42:55.520Z,13.27
2023-02-23T07:45:25.320Z,13.13
2023-02-23T07:47:55.557Z,12.97
2023-02-23T07:50:24.221Z,14.10
2023-02-23T07:52:53.421Z,13.37
2023-02-23T07:55:22.542Z,13.43
2023-02-23T07:57:51.229Z,14.10
2023-02-23T08:00:20.696Z,14.20
2023-02-23T08:02:49.419Z,14.37
2023-02-23T08:05:19.580Z,14.73
2023-02-23T08:07:48.269Z,14.90
2023-02-23T08:10:17.574Z,16.53
2023-02-23T08:12:46.448Z,15.47
2023-02-23T08:15:15.569Z,16.23
2023-02-23T08:17:44.371Z,15.77
2023-02-23T08:20:14.095Z,16.03
2023-02-23T08:22:49.749Z,15.63
2023-02-23T08:25:19.923Z,16.47
2023-02-23T08:27:48.870Z,17.33
2023-02-23T08:30:17.667Z,16.73
2023-02-23T08:32:47.106Z,17.20
2023-02-23T08:35:16.259Z,16.87
2023-02-23T08:37:46.755Z,17.00
2023-02-23T08:40:18.374Z,18.17
2023-02-23T08:42:48.996Z,18.00
2023-02-23T08:45:17.843Z,17.07
2023-02-23T08:47:46.595Z,18.17
2023-02-23T08:50:16.300Z,17.40
2023-02-23T08:52:49.715Z,17.30
2023-02-23T08:55:18.742Z,18.73
2023-02-23T08:57:47.663Z,20.83
2023-02-23T09:00:17.449Z,20.17
2023-02-23T09:02:48.631Z,19.57
2023-02-23T09:05:17.768Z,18.77
2023-02-23T09:07:49.334Z,19.87
2023-02-23T09:10:24.965Z,19.37
2023-02-23T09:12:53.752Z,19.43
2023-02-23T09:15:22.647Z,19.13
2023-02-23T09:17:51.324Z,18.83
2023-02-23T09:20:20.968Z,19.40
2023-02-23T09:22:51.321Z,20.40
2023-02-23T09:25:23.119Z,20.07
2023-02-23T09:27:57.262Z,20.33
2023-02-23T09:30:29.687Z,20.87
2023-02-23T09:32:59.148Z,21.97
2023-02-23T09:35:28.161Z,20.63
2023-02-23T09:37:58.858Z,21.33
2023-02-23T09:40:30.539Z,22.20
2023-02-23T09:43:06.919Z,22.73
2023-02-23T09:45:42.479Z,23.40
2023-02-23T09:48:16.706Z,24.00
2023-02-23T09:50:49.134Z,24.80
2023-02-23T09:53:33.937Z,24.87
2023-02-23T09:56:07.093Z,25.23
2023-02-23T09:58:36.884Z,25.70
2023-02-23T10:01:46.480Z,24.80
2023-02-23T10:04:22.386Z,26.17
2023-02-23T10:06:56.254Z,25.27
2023-02-23T10:09:37.458Z,26.30
2023-02-23T10:12:11.486Z,26.83
2023-02-23T10:15:00.091Z,27.03
2023-02-23T10:17:43.515Z,28.13
2023-02-23T10:20:23.484Z,28.20
2023-02-23T10:22:54.094Z,28.23
2023-02-23T10:25:27.504Z,28.83
2023-02-23T10:27:59.180Z,28.80
2023-02-23T10:30:30.960Z,29.00
2023-02-23T10:33:06.959Z,28.80
2023-02-23T10:35:35.558Z,28.83
2023-02-23T10:38:04.426Z,29.33
2023-02-23T10:40:38.833Z,29.37
2023-02-23T10:43:07.467Z,29.07
2023-02-23T10:45:42.707Z,27.83
2023-02-23T10:48:18.961Z,28.30
2023-02-23T10:50:50.441Z,29.80
2023-02-23T10:53:36.293Z,29.10
2023-02-23T10:56:13.927Z,28.93
2023-02-23T10:58:48.790Z,29.33
2023-02-23T11:01:32.864Z,30.10
2023-02-23T11:04:14.878Z,30.93
2023-02-23T11:06:44.586Z,28.60
2023-02-23T11:09:41.194Z,28.50
2023-02-23T11:12:29.701Z,28.77
2023-02-23T11:15:00.020Z,28.07
2023-02-23T11:17:33.064Z,28.90
2023-02-23T11:20:06.221Z,29.63
2023-02-23T11:22:37.791Z,29.37
2023-02-23T11:25:27.069Z,29.07
2023-02-23T11:27:58.296Z,30.37
2023-02-23T11:30:43.057Z,28.70
2023-02-23T11:33:40.596Z,28.90
2023-02-23T11:36:18.982Z,27.73
2023-02-23T11:38:48.560Z,27.37
2023-02-23T11:41:24.216Z,27.80
2023-02-23T11:43:59.362Z,26.70
2023-02-23T11:46:30.125Z,27.77
2023-02-23T11:49:01.422Z,27.90
2023-02-23T11:51:33.011Z,28.85
2023-02-23T11:54:06.001Z,28.87
2023-02-23T11:56:36.716Z,28.90
2023-02-23T11:59:16.916Z,30.60
2023-02-23T12:01:51.548Z,29.73
2023-02-23T12:04:30.593Z,27.23
2023-02-23T12:07:37.550Z,28.67
2023-02-23T12:10:15.311Z,27.90
2023-02-23T12:12:54.874Z,29.10
2023-02-23T12:15:36.753Z,28.77
2023-02-23T12:18:16.627Z,27.83
2023-02-23T12:20:48.738Z,29.13
2023-02-23T12:23:23.045Z,28.13
2023-02-23T12:25:56.183Z,27.10
2023-02-23T12:28:32.505Z,27.13
2023-02-23T12:31:12.647Z,28.00
2023-02-23T12:33:44.169Z,27.85
2023-02-23T12:36:22.347Z,27.05
2023-02-23T12:38:56.311Z,27.63
2023-02-23T12:41:33.374Z,28.40
2023-02-23T12:44:07.682Z,27.60
2023-02-23T12:46:43.694Z,26.63
2023-02-23T12:49:17.860Z,27.17
2023-02-23T12:51:51.722Z,27.48
2023-02-23T12:54:20.733Z,26.27
2023-02-23T12:56:59.598Z,27.10
2023-02-23T12:59:50.251Z,25.70
2023-02-23T13:02:27.288Z,25.60
2023-02-23T13:05:24.693Z,26.77
2023-02-23T13:08:13.057Z,26.77
2023-02-23T13:10:51.793Z,25.45
2023-02-23T13:13:32.749Z,25.52
2023-02-23T13:16:10.885Z,25.23
2023-02-23T13:18:45.788Z,25.48
2023-02-23T13:21:22.653Z,25.60
2023-02-23T13:24:01.499Z,24.73
2023-02-23T13:26:38.960Z,25.35
2023-02-23T13:29:11.818Z,24.60
2023-02-23T13:31:42.715Z,24.15
2023-02-23T13:34:18.227Z,25.00
2023-02-23T13:36:47.150Z,24.63
2023-02-23T13:39:36.763Z,24.33
2023-02-23T13:42:17.378Z,23.40
2023-02-23T13:44:51.519Z,22.63
2023-02-23T13:47:34.223Z,22.97
2023-02-23T13:50:16.527Z,22.60
2023-02-23T13:52:47.776Z,22.57
2023-02-23T13:55:49.601Z,23.27
2023-02-23T13:58:25.460Z,21.40
2023-02-23T14:01:13.230Z,21.63
2023-02-23T14:03:48.422Z,21.87
2023-02-23T14:06:21.079Z,20.00
2023-02-23T14:08:57.125Z,20.83
2023-02-23T14:11:48.334Z,20.43
2023-02-23T14:14:43.530Z,20.80
2023-02-23T14:17:44.325Z,21.10
2023-02-23T14:20:29.625Z,21.03
2023-02-23T14:23:50.967Z,21.30
2023-02-23T14:26:39.126Z,20.50
2023-02-23T14:29:29.400Z,19.57
2023-02-23T14:32:04.918Z,18.93
2023-02-23T14:34:52.158Z,18.50
2023-02-23T14:37:27.214Z,19.00
2023-02-23T14:40:02.692Z,18.57
2023-02-23T14:42:31.464Z,19.37
2023-02-23T14:45:06.412Z,18.40
2023-02-23T14:47:46.287Z,18.30
2023-02-23T14:50:24.596Z,17.63
2023-02-23T14:52:56.289Z,18.03
2023-02-23T14:55:29.425Z,18.13
2023-02-23T14:57:59.194Z,17.67
2023-02-23T15:00:32.672Z,17.13
2023-02-23T15:03:03.331Z,16.00
2023-02-23T15:05:34.235Z,17.87
2023-02-23T15:08:06.432Z,17.53
2023-02-23T15:10:39.708Z,16.17
2023-02-23T15:13:13.545Z,16.00
2023-02-23T15:15:46.169Z,16.40
2023-02-23T15:18:22.915Z,18.23
2023-02-23T15:20:52.074Z,17.97
2023-02-23T15:23:21.703Z,17.17
2023-02-23T15:25:53.027Z,17.80
2023-02-23T15:28:25.287Z,17.60
2023-02-23T15:30:55.600Z,17.53
2023-02-23T15:33:28.426Z,16.87
2023-02-23T15:36:07.634Z,16.73
2023-02-23T15:38:43.793Z,17.13
2023-02-23T15:41:21.644Z,17.67
2023-02-23T15:43:50.492Z,17.37
2023-02-23T15:46:26.115Z,17.30
2023-02-23T15:49:00.938Z,17.20
2023-02-23T15:51:37.296Z,15.20
2023-02-23T15:54:13.868Z,15.47
2023-02-23T15:56:46.867Z,15.47
2023-02-23T15:59:23.938Z,16.77
2023-02-23T16:01:56.022Z,17.40
2023-02-23T16:04:32.704Z,16.73
2023-02-23T16:07:19.095Z,16.27
2023-02-23T16:09:55.856Z,17.83
2023-02-23T16:12:32.142Z,18.40
2023-02-23T16:15:03.712Z,17.67
2023-02-23T16:18:25.719Z,17.27
2023-02-23T16:20:56.488Z,17.40
2023-02-23T16:23:34.097Z,16.73
2023-02-23T16:26:10.820Z,17.97
2023-02-23T16:28:45.943Z,18.83
2023-02-23T16:32:07.824Z,19.60
2023-02-23T16:34:45.856Z,21.67
2023-02-23T16:37:18.251Z,23.20
2023-02-23T16:39:48.224Z,24.17
2023-02-23T16:42:27.402Z,25.70
2023-02-23T16:44:58.234Z,23.83
2023-02-23T16:47:36.714Z,23.43
2023-02-23T16:50:20.036Z,24.17
2023-02-23T16:52:53.093Z,27.87
2023-02-23T16:55:26.247Z,24.03
2023-02-23T16:57:58.046Z,25.97
2023-02-23T17:00:30.373Z,24.27
2023-02-23T17:03:00.767Z,25.53
2023-02-23T17:05:30.457Z,25.37
2023-02-23T17:07:59.813Z,25.53
2023-02-23T17:10:32.303Z,26.40
2023-02-23T17:13:05.050Z,25.27
2023-02-23T17:15:37.174Z,25.40
2023-02-23T17:18:06.269Z,25.17
2023-02-23T17:20:35.577Z,25.37
2023-02-23T17:23:04.624Z,26.07
2023-02-23T17:25:33.684Z,26.63
2023-02-23T17:28:03.169Z,27.37
2023-02-23T17:30:32.626Z,27.83
2023-02-23T17:33:03.598Z,26.23
2023-02-23T17:35:33.594Z,26.33
2023-02-23T17:38:02.712Z,28.00
2023-02-23T17:40:36.528Z,27.93
2023-02-23T17:43:06.705Z,27.83
2023-02-23T17:45:35.536Z,28.50
2023-02-23T17:48:05.848Z,28.70
2023-02-23T17:50:34.544Z,30.60
2023-02-23T17:53:03.097Z,30.03
2023-02-23T17:55:34.290Z,25.57
2023-02-23T17:58:02.911Z,26.60
2023-02-23T18:00:37.816Z,21.80
2023-02-23T18:07:17.983Z,17.60
2023-02-23T18:09:50.229Z,20.00
2023-02-23T18:12:19.551Z,16.23
2023-02-23T18:14:48.248Z,17.13
2023-02-23T18:17:16.973Z,17.93
2023-02-23T18:19:47.641Z,18.27
2023-02-23T18:22:18.403Z,16.67
2023-02-23T18:24:46.958Z,17.70
2023-02-23T18:27:16.364Z,18.07
2023-02-23T18:29:45.040Z,19.20
2023-02-23T18:32:13.913Z,20.17
2023-02-23T18:34:42.732Z,20.60
2023-02-23T18:37:11.550Z,22.23
2023-02-23T18:39:41.620Z,22.97
2023-02-23T18:42:10.322Z,22.73
2023-02-23T18:44:38.986Z,25.03
2023-02-23T18:47:07.713Z,28.93
2023-02-23T18:49:37.009Z,27.33
2023-02-23T18:52:09.248Z,29.13
2023-02-23T18:54:38.513Z,32.80
2023-02-23T18:57:08.696Z,30.20
2023-02-23T18:59:37.458Z,28.97
2023-02-23T19:02:06.273Z,28.57
2023-02-23T19:04:36.753Z,30.53
2023-02-23T19:07:05.595Z,29.67
2023-02-23T19:09:34.435Z,31.00
2023-02-23T19:12:03.221Z,31.37
2023-02-23T19:14:48.864Z,31.93
2023-02-23T19:17:18.380Z,30.60
2023-02-23T19:19:47.049Z,32.10
2023-02-23T19:22:15.871Z,32.60
2023-02-23T19:24:44.415Z,32.27
2023-02-23T19:27:12.984Z,33.23
2023-02-23T19:29:43.246Z,33.30
2023-02-23T19:32:12.900Z,36.23
2023-02-23T19:34:41.452Z,34.60
2023-02-23T19:37:10.851Z,35.67
2023-02-23T19:39:39.521Z,34.20
2023-02-23T19:42:11.071Z,35.67
2023-02-23T19:44:39.835Z,34.00
2023-02-23T19:47:09.984Z,32.93
2023-02-23T19:49:38.546Z,35.40
2023-02-23T19:52:07.219Z,34.43
2023-02-23T19:54:38.012Z,34.03
2023-02-23T19:57:06.701Z,32.60
2023-02-23T19:59:35.334Z,33.87
2023-02-23T20:02:04.152Z,33.70
2023-02-23T20:04:34.627Z,32.90
2023-02-23T20:07:03.459Z,34.20
2023-02-23T20:09:38.225Z,32.33
2023-02-23T20:12:07.743Z,37.10
2023-02-23T20:14:38.206Z,38.77
2023-02-23T20:17:09.101Z,35.27
2023-02-23T20:19:39.448Z,36.40
2023-02-23T20:22:08.941Z,33.80
2023-02-23T20:24:37.775Z,36.40
2023-02-23T20:27:06.294Z,37.70
2023-02-23T20:33:44.952Z,35.40
2023-02-23T20:36:15.015Z,34.77
2023-02-23T20:38:43.566Z,34.53
2023-02-23T20:41:14.476Z,34.67
2023-02-23T20:43:44.031Z,33.00
2023-02-23T20:46:14.323Z,32.20
2023-02-23T20:48:44.001Z,30.33
2023-02-23T20:51:18.802Z,28.47
2023-02-23T20:53:48.977Z,29.53
2023-02-23T20:56:23.340Z,28.03
2023-02-23T20:58:54.455Z,26.23
2023-02-23T21:01:26.363Z,25.90
2023-02-23T21:03:56.172Z,25.57
2023-02-23T21:06:27.089Z,32.53
2023-02-23T21:09:02.767Z,34.07
2023-02-23T21:11:33.217Z,33.10
2023-02-23T21:14:02.215Z,32.87
2023-02-23T21:16:32.485Z,31.80
2023-02-23T21:19:06.453Z,34.27
2023-02-23T21:21:42.060Z,35.17
2023-02-23T21:24:10.768Z,33.53
2023-02-23T21:26:39.386Z,33.43
2023-02-23T21:29:15.038Z,33.07
2023-02-23T21:31:44.781Z,33.37
2023-02-23T21:35:04.684Z,31.60
2023-02-23T21:37:34.637Z,32.00
2023-02-23T21:40:04.709Z,31.37
2023-02-23T21:42:33.363Z,31.50
2023-02-23T21:45:04.123Z,33.03
2023-02-23T21:47:36.142Z,31.27
2023-02-23T21:50:05.526Z,32.17
2023-02-23T21:52:36.423Z,29.53
2023-02-23T21:55:07.907Z,29.77
2023-02-23T21:57:41.665Z,27.03
2023-02-23T22:00:12.845Z,26.47
2023-02-23T22:02:42.121Z,26.17
2023-02-23T22:05:11.340Z,27.07
2023-02-23T22:07:41.947Z,26.77
2023-02-23T22:10:11.321Z,26.43
2023-02-23T22:12:39.963Z,25.77
2023-02-23T22:15:10.543Z,24.60
2023-02-23T22:17:39.986Z,23.53
2023-02-23T22:20:10.131Z,24.47
2023-02-23T22:22:40.338Z,24.17
2023-02-23T22:25:09.798Z,23.23
2023-02-23T22:27:38.489Z,22.70
2023-02-23T22:30:09.558Z,23.30
2023-02-23T22:32:38.312Z,21.90
2023-02-23T22:35:07.965Z,21.20
2023-02-23T22:37:39.302Z,21.93
2023-02-23T22:40:15.232Z,22.63
2023-02-23T22:42:48.414Z,22.40
2023-02-23T22:45:18.114Z,22.20
2023-02-23T22:47:46.897Z,20.60
2023-02-23T22:50:18.990Z,21.70
2023-02-23T22:52:47.933Z,21.97
2023-02-23T22:55:19.380Z,22.27
2023-02-23T22:57:48.916Z,21.67
2023-02-23T23:00:20.592Z,22.23
2023-02-23T23:02:49.633Z,21.03
2023-02-23T23:05:19.178Z,20.83
2023-02-23T23:07:48.084Z,21.30
2023-02-23T23:10:19.477Z,21.10
2023-02-23T23:12:48.925Z,21.90
2023-02-23T23:15:19.501Z,22.03
2023-02-23T23:17:49.446Z,23.20
2023-02-23T23:20:25.692Z,23.90
2023-02-23T23:22:57.253Z,23.93
2023-02-23T23:25:29.681Z,23.33
2023-02-23T23:27:58.828Z,25.10
2023-02-23T23:30:30.063Z,22.90
2023-02-23T23:33:00.284Z,24.90
2023-02-23T23:35:29.150Z,24.80
2023-02-23T23:38:01.728Z,23.47
2023-02-23T23:40:35.821Z,23.37
2023-02-23T23:43:07.682Z,23.13
2023-02-23T23:45:40.671Z,24.13
2023-02-23T23:48:09.646Z,23.37
2023-02-23T23:50:39.745Z,23.53
2023-02-23T23:53:08.396Z,23.83
2023-02-23T23:55:38.506Z,23.70
2023-02-23T23:58:07.103Z,23.67
